Detall de PIREP

Printer-friendly versionPDF version

[2013/02/23 07:50:00]
Flight IATA:CT1004
Pilot Number:012
Company ICAO:CAT
Aircraft Type:C750/F
PAX:4
Departing Airport: EKCH
Destination Airport: LEBL
Alternate Airport:LEPA
Online: VATSIM
Route:LANGO M611 DEGUL UN872 EEL UP174 WOODY UN872 KOVIN UY317 RESMI UN857 DIRMO UN855 VALKU PPG UP84 ALBER
Flight Level:F490
No Slew and time accel
No pause
Crash detect
Detect pilot in Cockpit between each 30 and 45 minutes
07:50 Zero fuel Weight: 22996 Lbs, Fuel Weight: 5943 Lbs
07:50 VATSIM:EKCH 230720Z 05014KT 9999 OVC033 M02/M05 Q1024 R04L/710184 R04R/710171 R12/710186 NOSIG
07:50 VATSIM:LEBL 230730Z 28003KT 250V320 3500 -SN FEW006 SCT013 BKN022 02/02 Q1001 NOSIG
07:50 VOICE CATALONIAN / MWC 2013 BARCELONA CHARTER
08:05 Parking Brakes off
08:11 Take-off
08:11 Take off Weight: 28805 Lbs
08:11 Wind: 050º @ 014 Knots Heading: 042º
08:11 POS N55º 36´ 41´´ E012º 38´ 46´´
08:11Gear Up: 160 Knots
08:11 Flaps:3 at 160 Knots
08:11 Flaps:2 at 189 Knots
08:11 Flaps:0 at 181 Knots
08:26 Wind:043º@028 Knots Heading: 257º Ground Speed: 516 Knots Altitude 44865 ft
08:29 TOC
08:29 Fuel Weight: 5115 Lb
08:41 Wind:038º@024 Knots Heading: 227º Ground Speed: 520 Knots Altitude 49183 ft
08:56 Wind:026º@019 Knots Heading: 218º Ground Speed: 518 Knots Altitude 49140 ft
09:11 Wind:010º@016 Knots Heading: 203º Ground Speed: 516 Knots Altitude 49051 ft
09:26 Wind:346º@015 Knots Heading: 192º Ground Speed: 513 Knots Altitude 48992 ft
09:41 Wind:307º@020 Knots Heading: 159º Ground Speed: 516 Knots Altitude 48900 ft
09:56 Wind:290º@030 Knots Heading: 182º Ground Speed: 511 Knots Altitude 48772 ft
09:57 TOD
09:57 Fuel Weight: 3721 Lb
10:11 Wind:319º@019 Knots Heading: 192º Ground Speed: 377 Knots Altitude 15121 ft
10:22 Flaps:2 at 190 Knots
10:24 Flaps:3 at 190 Knots
10:25 Gear Down: 158 Knots
10:25 Flaps:4 at 161 Knots
10:25 Flaps:5 at 151 Knots
10:26 Wind:349º@004 Knots Heading: 250º Ground Speed: 133 Knots Altitude 882 ft
10:27 TouchDown:Rate -159 ft/min Speed: 119 Knots
10:27 VATSIM:LEBL 231000Z 34005KT 260V360 4000 BR FEW006 SCT015 BKN020 04/03 Q1003 NOSIG
10:27 Land
10:27 Wind:348º@005 Knots
10:27 Heading: 247º
10:27 Flight Duration: 02:16
10:27 Landing Weight: 26431 Lbs
10:27 POS N41º 17´ 57´´ E002º 05´ 07´´
10:29 Parking brakes on
10:29 Block to Block Duration: 02:24
10:29 Final Fuel: 3419 Lbls
10:29 Spent Fuel: 2524 Lbls
10:29 Flight Length: 1062 NM
10:29 TOD Land Length: 170 NM

Exportar CSV

Powered by Drupal - Modified by Danger4k